Connexion

Connexion à votre compte

Identifiant
Mot de passe
Maintenir la connexion active sur ce site
C'est avec un grand plaisir que nous venons de réceptionner à l'Aéroclub de Savoie conjointement avec le CLAP et avec l'aide de la FFA un avion électrique Pipistrel VELIS !!
C'est parti pour des vols silencieux et sans essence !
 
Les vols de découverte et le début de formation sur cet avion novateur sont possibles !
 
 
  dsc9332 edit 11
 
 

Nous contacter

 Téléphone : +33 (0)4 79 54 41 81

Coordonnées détaillées et accès : cliquez ici

facebook 770688 960 720  logo instagram large

[source: ADDS]
METAR / TAF
LFLB 020730Z AUTO 00000KT 9999 FEW066 M02/M02 Q1032 NOSIG =
TAF LFLB 020200Z 0203/0303 36006KT 9999 BKN045 TEMPO 0203/0210 18005KT BECMG 0210/0212 SCT040 PROB40 TEMPO 0222/0303 2000 BR

SR / SS: 06:56 / 16:43 UTC (Lever/Coucher du soleil le 2023-02-02)
JSN Boot template designed by JoomlaShine.com